createdAt,value
2022-08-07T00:04:46.515Z,64.95
2022-08-07T00:10:18.996Z,65.04
2022-08-07T00:15:23.208Z,65.17
2022-08-07T00:20:35.376Z,65.24
2022-08-07T00:25:43.692Z,65.41
2022-08-07T00:30:54.419Z,65.65
2022-08-07T00:36:04.295Z,66.00
2022-08-07T00:41:14.704Z,65.89
2022-08-07T00:46:23.397Z,65.89
2022-08-07T00:51:58.498Z,65.96
2022-08-07T00:57:02.066Z,66.29
2022-08-07T01:02:28.883Z,66.46
2022-08-07T01:07:39.450Z,66.48
2022-08-07T01:12:53.715Z,66.32
2022-08-07T01:18:05.696Z,66.50
2022-08-07T01:23:21.022Z,66.91
2022-08-07T01:28:48.380Z,67.08
2022-08-07T01:34:04.456Z,67.22
2022-08-07T01:39:16.878Z,67.38
2022-08-07T01:44:32.049Z,67.37
2022-08-07T01:49:41.435Z,67.44
2022-08-07T01:54:48.687Z,67.62
2022-08-07T02:00:03.231Z,68.94
2022-08-07T02:05:28.632Z,69.54
2022-08-07T02:11:06.603Z,69.41
2022-08-07T02:16:28.649Z,69.72
2022-08-07T02:21:55.068Z,69.54
2022-08-07T02:27:04.299Z,69.59
2022-08-07T02:32:14.579Z,69.35
2022-08-07T02:37:25.606Z,69.66
2022-08-07T02:42:35.672Z,69.69
2022-08-07T02:47:48.902Z,69.48
2022-08-07T02:53:03.726Z,69.58
2022-08-07T02:58:19.373Z,69.85
2022-08-07T03:03:50.102Z,70.28
2022-08-07T03:09:05.486Z,70.43
2022-08-07T03:14:15.246Z,70.46
2022-08-07T03:19:24.445Z,70.41
2022-08-07T03:24:39.057Z,70.58
2022-08-07T03:29:51.254Z,70.72
2022-08-07T03:35:17.781Z,70.84
2022-08-07T03:40:31.105Z,71.16
2022-08-07T03:45:48.754Z,71.39
2022-08-07T03:51:02.005Z,71.63
2022-08-07T03:56:32.587Z,72.06
2022-08-07T04:01:47.140Z,72.38
2022-08-07T04:07:00.146Z,72.76
2022-08-07T04:12:24.310Z,72.99
2022-08-07T04:18:56.893Z,73.01
2022-08-07T04:23:08.447Z,73.13
2022-08-07T04:28:29.347Z,73.32
2022-08-07T04:33:38.936Z,73.57
2022-08-07T04:38:48.146Z,73.71
2022-08-07T04:44:14.602Z,73.79
2022-08-07T04:49:38.762Z,73.77
2022-08-07T04:54:58.130Z,73.98
2022-08-07T05:00:18.809Z,74.25
2022-08-07T05:05:53.524Z,74.50
2022-08-07T05:11:11.692Z,74.59
2022-08-07T05:16:27.759Z,75.38
2022-08-07T05:21:59.864Z,73.81
2022-08-07T05:27:07.671Z,74.09
2022-08-07T05:32:27.961Z,74.14
2022-08-07T05:37:40.903Z,74.18
2022-08-07T05:42:56.031Z,73.96
2022-08-07T05:48:08.069Z,73.76
2022-08-07T05:54:12.475Z,73.42
2022-08-07T05:58:53.267Z,73.06
2022-08-07T06:04:10.042Z,72.78
2022-08-07T06:09:22.791Z,72.45
2022-08-07T06:14:50.947Z,72.13
2022-08-07T06:20:03.979Z,71.91
2022-08-07T06:25:15.210Z,71.63
2022-08-07T06:30:36.213Z,71.37
2022-08-07T06:36:06.919Z,71.16
2022-08-07T06:42:02.156Z,71.11
2022-08-07T06:47:10.680Z,71.02
2022-08-07T06:52:31.419Z,70.81
2022-08-07T06:57:56.822Z,70.68
2022-08-07T07:03:13.642Z,70.20
2022-08-07T07:08:33.352Z,69.58
2022-08-07T07:13:58.060Z,69.07
2022-08-07T07:19:56.920Z,68.56
2022-08-07T07:24:57.051Z,68.21
2022-08-07T07:30:14.460Z,68.02
2022-08-07T07:36:05.690Z,67.80
2022-08-07T07:41:16.577Z,67.50
2022-08-07T07:46:37.489Z,67.19
2022-08-07T07:51:58.328Z,67.04
2022-08-07T07:57:09.844Z,66.92
2022-08-07T08:02:22.521Z,66.75
2022-08-07T08:07:59.858Z,66.67
2022-08-07T08:13:15.227Z,65.97
2022-08-07T08:18:29.616Z,65.68
2022-08-07T08:23:58.288Z,65.31
2022-08-07T08:29:09.078Z,65.06
2022-08-07T08:34:27.314Z,64.81
2022-08-07T08:39:55.235Z,64.44
2022-08-07T08:45:15.500Z,63.47
2022-08-07T08:50:34.873Z,63.06
2022-08-07T08:55:58.804Z,62.62
2022-08-07T09:01:19.407Z,61.96
2022-08-07T09:06:40.384Z,61.38
2022-08-07T09:12:20.044Z,60.88
2022-08-07T09:17:58.879Z,60.36
2022-08-07T09:24:53.814Z,59.73
2022-08-07T09:30:05.169Z,59.98
2022-08-07T09:34:43.052Z,59.69
2022-08-07T09:39:57.726Z,59.14
2022-08-07T09:47:42.358Z,59.24
2022-08-07T09:51:01.419Z,57.82
2022-08-07T09:56:41.802Z,57.05
2022-08-07T10:02:10.937Z,56.74
2022-08-07T10:07:53.103Z,56.63
2022-08-07T10:13:55.086Z,56.01
2022-08-07T10:19:30.199Z,55.62
2022-08-07T10:24:59.594Z,55.63
2022-08-07T10:30:13.065Z,54.71
2022-08-07T10:35:56.258Z,54.24
2022-08-07T10:41:09.118Z,54.33
2022-08-07T10:46:26.552Z,54.23
2022-08-07T10:52:12.964Z,54.19
2022-08-07T10:57:17.875Z,54.19
2022-08-07T11:02:49.003Z,54.08
2022-08-07T11:08:12.444Z,54.44
2022-08-07T11:14:44.639Z,54.32
2022-08-07T11:19:07.174Z,54.05
2022-08-07T11:24:24.104Z,53.95
2022-08-07T11:29:47.418Z,53.87
2022-08-07T11:35:03.077Z,53.65
2022-08-07T11:40:27.613Z,53.31
2022-08-07T11:45:53.089Z,52.88
2022-08-07T11:51:44.708Z,52.35
2022-08-07T11:57:05.347Z,51.97
2022-08-07T12:02:38.135Z,51.81
2022-08-07T12:08:11.402Z,51.70
2022-08-07T12:13:47.509Z,51.71
2022-08-07T12:18:57.707Z,51.76
2022-08-07T12:24:37.703Z,52.07
2022-08-07T12:29:55.275Z,51.93
2022-08-07T12:35:08.206Z,52.17
2022-08-07T12:40:46.721Z,52.38
2022-08-07T12:45:56.408Z,52.68
2022-08-07T12:51:17.291Z,52.71
2022-08-07T12:56:27.947Z,52.70
2022-08-07T13:01:51.392Z,52.93
2022-08-07T13:08:12.913Z,52.83
2022-08-07T13:13:47.883Z,52.69
2022-08-07T13:18:55.589Z,52.60
2022-08-07T13:24:11.440Z,52.54
2022-08-07T13:29:25.893Z,52.50
2022-08-07T13:34:50.886Z,52.41
2022-08-07T13:40:35.230Z,52.35
2022-08-07T13:46:11.285Z,52.32
2022-08-07T13:52:22.672Z,52.07
2022-08-07T13:57:09.034Z,51.92
2022-08-07T14:02:33.354Z,51.93
2022-08-07T14:08:00.864Z,52.20
2022-08-07T14:13:09.875Z,52.09
2022-08-07T14:18:28.675Z,52.15
2022-08-07T14:24:00.005Z,51.54
2022-08-07T14:30:06.431Z,51.60
2022-08-07T14:34:45.715Z,51.11
2022-08-07T14:40:15.654Z,50.95
2022-08-07T14:45:26.059Z,51.07
2022-08-07T14:50:57.246Z,51.07
2022-08-07T14:56:13.291Z,50.92
2022-08-07T15:01:25.978Z,50.99
2022-08-07T15:06:52.883Z,51.15
2022-08-07T15:12:08.506Z,51.30
2022-08-07T15:17:21.218Z,51.28
2022-08-07T15:22:33.751Z,51.18
2022-08-07T15:28:02.095Z,51.09
2022-08-07T15:33:33.439Z,51.01
2022-08-07T15:38:59.006Z,51.08
2022-08-07T15:44:13.024Z,51.01
2022-08-07T15:50:05.767Z,50.99
2022-08-07T15:54:57.220Z,51.03
2022-08-07T16:00:30.988Z,51.21
2022-08-07T16:05:47.098Z,51.32
2022-08-07T16:10:59.759Z,51.32
2022-08-07T16:16:48.249Z,51.28
2022-08-07T16:22:03.293Z,51.18
2022-08-07T16:27:40.599Z,51.13
2022-08-07T16:34:03.398Z,51.11
2022-08-07T16:39:01.211Z,50.89
2022-08-07T16:45:14.729Z,50.76
2022-08-07T16:50:52.572Z,50.76
2022-08-07T16:56:12.828Z,50.76
2022-08-07T17:01:41.261Z,50.89
2022-08-07T17:07:03.202Z,50.83
2022-08-07T17:12:34.510Z,50.85
2022-08-07T17:17:55.248Z,50.86
2022-08-07T17:23:32.572Z,50.78
2022-08-07T17:29:04.650Z,50.79
2022-08-07T17:34:35.463Z,50.78
2022-08-07T17:40:03.428Z,50.81
2022-08-07T17:45:19.764Z,50.94
2022-08-07T17:50:47.826Z,51.12
2022-08-07T17:56:06.619Z,51.51
2022-08-07T18:01:23.681Z,51.89
2022-08-07T18:06:44.215Z,52.11
2022-08-07T18:12:11.867Z,52.32
2022-08-07T18:18:36.656Z,52.35
2022-08-07T18:23:35.241Z,52.40
2022-08-07T18:28:59.124Z,52.36
2022-08-07T18:34:40.873Z,52.44
2022-08-07T18:40:42.471Z,52.63
2022-08-07T18:46:25.120Z,52.77
2022-08-07T18:52:35.204Z,52.87
2022-08-07T18:57:30.112Z,53.27
2022-08-07T19:03:01.433Z,53.00
2022-08-07T19:08:14.475Z,53.08
2022-08-07T19:13:39.213Z,53.68
2022-08-07T19:18:56.706Z,53.68
2022-08-07T19:24:12.541Z,53.99
2022-08-07T19:31:01.611Z,53.95
2022-08-07T19:35:18.690Z,54.31
2022-08-07T19:40:49.397Z,54.94
2022-08-07T19:46:08.190Z,55.43
2022-08-07T19:51:52.392Z,55.62
2022-08-07T19:58:01.222Z,55.83
2022-08-07T20:02:39.124Z,56.24
2022-08-07T20:07:50.775Z,56.65
2022-08-07T20:13:06.101Z,56.76
2022-08-07T20:18:19.897Z,56.97
2022-08-07T20:23:43.373Z,57.19
2022-08-07T20:29:00.106Z,57.35
2022-08-07T20:34:10.165Z,57.49
2022-08-07T20:40:03.240Z,57.79
2022-08-07T20:44:59.791Z,57.81
2022-08-07T20:50:10.954Z,58.28
2022-08-07T20:55:23.569Z,58.70
2022-08-07T21:00:42.752Z,58.89
2022-08-07T21:05:56.391Z,59.31
2022-08-07T21:11:05.589Z,59.85
2022-08-07T21:16:20.103Z,60.40
2022-08-07T21:21:56.627Z,60.95
2022-08-07T21:27:22.039Z,61.42
2022-08-07T21:32:46.701Z,62.10
2022-08-07T21:38:11.355Z,62.80
2022-08-07T21:43:47.417Z,63.52
2022-08-07T21:49:01.277Z,63.96
2022-08-07T21:54:21.820Z,64.71
2022-08-07T22:00:04.673Z,65.13
2022-08-07T22:05:22.137Z,65.45
2022-08-07T22:10:51.763Z,66.01
2022-08-07T22:16:43.091Z,66.57
2022-08-07T22:22:02.836Z,66.66
2022-08-07T22:27:19.145Z,66.89
2022-08-07T22:32:39.119Z,67.29
2022-08-07T22:38:01.833Z,67.59
2022-08-07T22:43:17.928Z,67.90
2022-08-07T22:49:02.237Z,68.22
2022-08-07T22:54:50.973Z,68.25
2022-08-07T23:00:13.238Z,68.48
2022-08-07T23:06:07.731Z,68.74
2022-08-07T23:11:41.212Z,68.83
2022-08-07T23:17:05.362Z,69.07
2022-08-07T23:22:32.203Z,69.28
2022-08-07T23:28:21.792Z,69.43
2022-08-07T23:34:35.329Z,69.46
2022-08-07T23:39:48.717Z,69.51
2022-08-07T23:45:33.188Z,69.69
2022-08-07T23:50:54.475Z,69.75
2022-08-07T23:56:12.792Z,69.93
